Time;durP1;ratioP1;P1;durP2;ratioP2;P2;SDS_P1;SDS_P2;PMS_P1;PMS_P2;Temp;Humidity;BMP_temperature;BMP_pressure;BME280_temperature;BME280_humidity;BME280_pressure;Samples;Min_cycle;Max_cycle;Signal;HPM_P1;HPM_P2
2022/01/26 00:09:17;;;;;;;23.42;12.58;;;;;;;3.98;100.00;101610.78;3495272;83;99144;-90
2022/01/26 00:14:18;;;;;;;23.73;12.30;;;;;;;4.00;100.00;101602.32;3501736;82;99428;-91
2022/01/26 00:25:42;;;;;;;19.02;10.53;;;;;;;4.02;100.00;101602.27;3519682;82;99330;-90
2022/01/26 00:41:32;;;;;;;20.05;9.63;;;;;;;4.04;100.00;101589.70;3496632;82;98725;-90
2022/01/26 00:46:24;;;;;;;17.02;8.65;;;;;;;4.07;100.00;101591.80;3514003;82;98847;-90
2022/01/26 00:51:25;;;;;;;17.05;8.15;;;;;;;4.09;100.00;101599.92;3514486;82;98777;-90
2022/01/26 00:56:26;;;;;;;16.50;8.20;;;;;;;4.07;100.00;101585.00;3525473;82;98959;-90
2022/01/26 01:01:28;;;;;;;13.00;6.30;;;;;;;4.06;100.00;101595.11;3514928;82;98563;-90
2022/01/26 01:06:35;;;;;;;12.27;6.40;;;;;;;4.10;100.00;101598.02;3519318;82;98513;-91
2022/01/26 01:11:32;;;;;;;14.15;7.15;;;;;;;4.11;100.00;101581.92;3509139;82;98726;-90
2022/01/26 01:16:33;;;;;;;14.30;7.47;;;;;;;4.11;100.00;101579.20;3523597;82;98873;-90
2022/01/26 01:31:58;;;;;;;18.00;8.05;;;;;;;4.11;100.00;101568.30;3520022;82;99352;-91
2022/01/26 01:37:03;;;;;;;19.70;7.90;;;;;;;4.09;100.00;101568.59;3527283;82;32969;-88
2022/01/26 01:42:03;;;;;;;16.87;8.13;;;;;;;4.08;100.00;101570.26;3514085;82;99096;-90
2022/01/26 01:47:06;;;;;;;15.93;7.33;;;;;;;4.08;100.00;101565.63;3525985;82;98659;-90
2022/01/26 01:52:13;;;;;;;16.02;8.38;;;;;;;4.08;100.00;101565.63;3518243;82;98874;-91
2022/01/26 01:57:10;;;;;;;20.68;10.50;;;;;;;4.07;100.00;101563.20;3511929;82;99287;-90
2022/01/26 02:02:11;;;;;;;18.83;9.30;;;;;;;4.07;100.00;101555.84;3517376;82;99513;-91
2022/01/26 02:07:13;;;;;;;20.10;10.30;;;;;;;4.06;100.00;101556.15;3514944;82;32455;-90
2022/01/26 02:12:19;;;;;;;18.00;9.43;;;;;;;4.07;100.00;101554.48;3514940;82;99393;-90
2022/01/26 02:17:36;;;;;;;23.15;9.63;;;;;;;4.07;100.00;101550.95;3484001;82;98972;-90
2022/01/26 03:04:55;;;;;;;19.75;9.35;;;;;;;3.92;100.00;101531.66;3522944;82;99297;-90
2022/01/26 03:10:03;;;;;;;16.85;8.28;;;;;;;3.94;100.00;101538.17;3502603;82;98997;-90
2022/01/26 03:15:07;;;;;;;17.07;8.65;;;;;;;3.96;100.00;101536.77;3517756;82;98820;-90
2022/01/26 03:20:07;;;;;;;17.70;8.80;;;;;;;3.97;100.00;101526.65;3514808;82;99004;-90
2022/01/26 03:30:51;;;;;;;17.05;8.50;;;;;;;4.01;100.00;101533.11;3511756;82;98867;-91
2022/01/26 03:35:50;;;;;;;16.40;8.08;;;;;;;4.01;100.00;101527.66;3520742;82;98629;-90
2022/01/26 03:41:01;;;;;;;15.65;7.80;;;;;;;4.02;100.00;101524.63;3515164;82;98955;-90
2022/01/26 03:45:53;;;;;;;16.70;8.18;;;;;;;4.04;100.00;101522.97;3491808;82;98951;-89
2022/01/26 03:50:54;;;;;;;15.53;8.03;;;;;;;4.07;100.00;101518.25;3511244;82;98895;-90
2022/01/26 03:55:55;;;;;;;14.00;7.70;;;;;;;4.07;100.00;101521.80;3517778;82;98884;-91
2022/01/26 04:00:55;;;;;;;16.97;8.30;;;;;;;4.09;100.00;101518.78;3496713;82;98542;-90
2022/01/26 04:05:56;;;;;;;16.93;8.77;;;;;;;4.11;100.00;101511.09;3468469;82;98724;-90
2022/01/26 04:16:07;;;;;;;18.35;9.13;;;;;;;4.14;100.00;101512.64;3513844;82;98821;-89
2022/01/26 04:21:21;;;;;;;18.67;8.75;;;;;;;4.19;100.00;101516.61;3502499;83;98858;-91
2022/01/26 04:26:13;;;;;;;19.27;9.45;;;;;;;4.22;100.00;101514.64;3507211;83;98946;-90
2022/01/26 04:31:15;;;;;;;20.80;9.88;;;;;;;4.23;100.00;101503.98;3491779;83;98942;-90
2022/01/26 04:36:23;;;;;;;20.23;9.95;;;;;;;4.27;100.00;101500.88;3508258;83;98991;-91
2022/01/26 04:41:29;;;;;;;23.18;10.25;;;;;;;4.28;100.00;101499.78;3498043;83;99161;-90
2022/01/26 04:46:27;;;;;;;52.35;21.95;;;;;;;4.30;100.00;101496.72;3492272;83;99100;-91
2022/01/26 04:51:28;;;;;;;24.07;11.10;;;;;;;4.29;100.00;101487.77;3497462;83;99578;-90
2022/01/26 04:56:29;;;;;;;18.97;9.03;;;;;;;4.31;100.00;101486.09;3505773;83;98958;-90
2022/01/26 05:01:31;;;;;;;20.03;10.50;;;;;;;4.32;100.00;101472.72;3498724;83;98900;-90
2022/01/26 05:06:31;;;;;;;21.77;9.13;;;;;;;4.35;100.00;101469.35;3502251;83;98806;-89
2022/01/26 05:11:36;;;;;;;18.10;8.50;;;;;;;4.36;100.00;101464.17;3502978;83;98787;-91
2022/01/26 05:16:35;;;;;;;24.37;11.33;;;;;;;4.37;100.00;101467.14;3509841;82;98945;-90
2022/01/26 05:21:36;;;;;;;21.93;10.00;;;;;;;4.34;100.00;101458.20;3516985;82;99112;-89
2022/01/26 05:26:40;;;;;;;17.73;7.73;;;;;;;4.35;100.00;101457.09;3519574;82;98994;-89
2022/01/26 05:31:41;;;;;;;14.85;6.53;;;;;;;4.36;100.00;101459.52;3512747;82;98957;-89
2022/01/26 05:36:42;;;;;;;22.70;10.03;;;;;;;4.37;100.00;101460.33;3512436;82;32347;-90
2022/01/26 05:41:43;;;;;;;17.50;8.53;;;;;;;4.35;100.00;101458.45;3510071;82;99283;-91
2022/01/26 05:46:47;;;;;;;18.80;8.47;;;;;;;4.36;100.00;101450.55;3515091;82;98919;-90
2022/01/26 05:51:47;;;;;;;17.67;7.92;;;;;;;4.34;100.00;101448.13;3515561;82;98800;-90
2022/01/26 05:56:48;;;;;;;16.90;7.10;;;;;;;4.33;100.00;101437.53;3518351;82;98836;-91
2022/01/26 06:01:49;;;;;;;17.27;7.47;;;;;;;4.39;100.00;101449.36;3516338;82;98847;-91
2022/01/26 06:06:50;;;;;;;17.17;8.13;;;;;;;4.40;100.00;101438.70;3506679;81;33635;-89
2022/01/26 06:11:51;;;;;;;18.15;7.92;;;;;;;4.40;100.00;101443.34;3427805;84;98729;-89
2022/01/26 06:16:52;;;;;;;21.67;8.33;;;;;;;4.39;100.00;101438.46;3541259;82;98978;-90
2022/01/26 06:21:53;;;;;;;20.23;8.77;;;;;;;4.40;100.00;101441.97;3516355;82;98962;-90
2022/01/26 06:26:54;;;;;;;19.90;9.43;;;;;;;4.40;100.00;101449.61;3520698;82;99276;-89
2022/01/26 06:31:54;;;;;;;19.62;9.78;;;;;;;4.39;100.00;101445.28;3518118;82;98865;-90
2022/01/26 06:36:55;;;;;;;21.27;9.63;;;;;;;4.38;100.00;101445.58;3522453;82;32483;-89
2022/01/26 06:41:56;;;;;;;19.76;7.94;;;;;;;4.38;100.00;101449.12;3484083;81;98718;-89
2022/01/26 06:52:13;;;;;;;24.30;9.97;;;;;;;4.40;100.00;101446.87;3498858;83;98875;-90
2022/01/26 06:57:14;;;;;;;23.23;9.77;;;;;;;4.40;100.00;101439.25;3504951;83;98910;-92
2022/01/26 07:02:15;;;;;;;22.10;8.77;;;;;;;4.40;100.00;101445.52;3472441;83;98902;-90
2022/01/26 07:07:15;;;;;;;19.67;8.67;;;;;;;4.40;100.00;101434.62;3507317;83;26193;-89
2022/01/26 07:12:16;;;;;;;18.80;8.30;;;;;;;4.41;100.00;101438.13;3496523;83;99105;-90
2022/01/26 07:22:36;;;;;;;19.20;8.65;;;;;;;4.40;100.00;101446.06;3490951;82;98805;-89
2022/01/26 07:27:37;;;;;;;20.37;10.53;;;;;;;4.39;100.00;101443.91;3437545;84;98969;-89
2022/01/26 07:32:38;;;;;;;28.27;12.43;;;;;;;4.39;100.00;101450.73;3467121;83;99048;-89
2022/01/26 07:37:39;;;;;;;20.80;10.50;;;;;;;4.39;100.00;101449.36;3468257;83;99152;-89
2022/01/26 07:42:41;;;;;;;25.07;8.77;;;;;;;4.40;100.00;101450.15;3471571;83;98847;-89
2022/01/26 07:47:43;;;;;;;20.53;9.43;;;;;;;4.40;100.00;101449.61;3472389;83;99116;-89
2022/01/26 07:52:44;;;;;;;20.43;8.97;;;;;;;4.40;100.00;101441.43;3529258;81;99102;-89
2022/01/26 07:57:48;;;;;;;16.60;7.30;;;;;;;4.42;100.00;101443.85;3516876;83;98896;-91
2022/01/26 08:02:49;;;;;;;17.77;8.03;;;;;;;4.44;100.00;101445.70;3503260;83;98866;-88
2022/01/26 08:07:51;;;;;;;15.58;7.95;;;;;;;4.43;100.00;101448.97;3512998;83;99189;-90
2022/01/26 08:12:52;;;;;;;18.23;8.33;;;;;;;4.44;100.00;101446.52;3513123;82;98263;-89
2022/01/26 08:17:54;;;;;;;15.87;7.27;;;;;;;4.44;100.00;101452.51;3521555;82;98739;-89
2022/01/26 08:22:56;;;;;;;17.82;8.08;;;;;;;4.45;100.00;101452.75;3507908;82;98893;-89
2022/01/26 08:28:22;;;;;;;16.70;7.47;;;;;;;4.46;100.00;101454.36;3514842;82;98949;-89
2022/01/26 08:33:05;;;;;;;17.42;7.75;;;;;;;4.47;100.00;101465.53;3484433;82;98896;-90
2022/01/26 08:38:06;;;;;;;15.57;7.87;;;;;;;4.45;100.00;101469.92;3460911;84;99292;-91
2022/01/26 08:43:07;;;;;;;16.73;8.60;;;;;;;4.47;100.00;101473.13;3459587;84;98368;-89
2022/01/26 08:48:09;;;;;;;15.13;7.33;;;;;;;4.46;100.00;101462.53;3483603;83;98628;-89
2022/01/26 08:53:10;;;;;;;15.63;7.90;;;;;;;4.47;100.00;101454.63;3428492;84;98763;-90
2022/01/26 08:58:11;;;;;;;13.07;6.30;;;;;;;4.48;100.00;101456.23;3526798;82;98833;-90
2022/01/26 09:03:12;;;;;;;15.00;7.37;;;;;;;4.49;100.00;101455.92;3515128;82;99211;-89
2022/01/26 09:08:13;;;;;;;12.37;6.17;;;;;;;4.52;100.00;101462.65;3520759;82;99220;-92
2022/01/26 09:13:14;;;;;;;13.67;6.37;;;;;;;4.51;100.00;101452.86;3509392;82;98415;-89
2022/01/26 09:18:20;;;;;;;12.07;6.23;;;;;;;4.53;100.00;101460.98;3499425;82;98641;-90
2022/01/26 09:23:18;;;;;;;14.47;6.70;;;;;;;4.57;100.00;101466.61;3463738;83;98923;-90
2022/01/26 09:28:19;;;;;;;13.77;6.50;;;;;;;4.58;100.00;101457.34;3465536;84;98836;-90
2022/01/26 09:33:19;;;;;;;14.85;6.72;;;;;;;4.60;100.00;101457.27;3438938;84;99010;-90
2022/01/26 09:38:21;;;;;;;11.47;6.53;;;;;;;4.61;100.00;101460.23;3459148;83;99007;-91
2022/01/26 09:43:22;;;;;;;14.97;7.90;;;;;;;4.55;100.00;101444.31;3387749;85;25932;-91
2022/01/26 09:48:23;;;;;;;17.67;9.13;;;;;;;4.59;100.00;101452.91;3450885;84;98757;-91
2022/01/26 09:53:28;;;;;;;15.00;8.10;;;;;;;4.56;100.00;101460.37;3469593;83;98611;-89
2022/01/26 09:58:43;;;;;;;14.60;7.87;;;;;;;4.52;100.00;101453.92;3451202;83;107844;-90
2022/01/26 10:03:45;;;;;;;12.60;7.12;;;;;;;4.51;100.00;101460.50;3466167;83;98970;-91
2022/01/26 10:19:18;;;;;;;17.35;7.95;;;;;;;4.50;100.00;101452.62;3442838;83;98618;-89
2022/01/26 10:24:27;;;;;;;;;;;;;;;4.48;100.00;101447.48;3470741;83;99030;-91
2022/01/26 10:29:33;;;;;;;18.67;8.88;;;;;;;4.45;100.00;101453.56;3462068;83;84839;-88
2022/01/26 10:34:32;;;;;;;14.98;8.20;;;;;;;4.39;100.00;101443.09;3471511;83;98928;-87
2022/01/26 10:39:48;;;;;;;16.97;9.00;;;;;;;4.38;100.00;101440.13;3542395;81;98832;-90
2022/01/26 10:54:51;;;;;;;25.67;11.23;;;;;;;4.39;100.00;101428.11;3470194;83;25764;-89
2022/01/26 10:59:52;;;;;;;22.43;10.20;;;;;;;4.41;100.00;101419.05;3473597;83;99172;-87
2022/01/26 11:04:53;;;;;;;21.80;8.87;;;;;;;4.37;100.00;101415.36;3476993;83;99163;-89
2022/01/26 11:09:54;;;;;;;19.40;8.83;;;;;;;4.32;100.00;101420.36;3467362;83;98908;-88
2022/01/26 11:15:12;;;;;;;24.40;9.30;;;;;;;4.33;100.00;101419.27;3464450;83;26220;-90
2022/01/26 11:20:31;;;;;;;17.37;8.85;;;;;;;4.34;100.00;101409.16;3474537;83;98886;-90
2022/01/26 11:25:30;;;;;;;16.48;7.35;;;;;;;4.33;100.00;101413.00;3502640;83;32416;-89
2022/01/26 11:30:33;;;;;;;11.35;6.17;;;;;;;4.31;100.00;101414.67;3474502;83;98535;-89
2022/01/26 11:35:36;;;;;;;13.80;5.77;;;;;;;4.29;100.00;101407.92;3508582;83;101099;-88
2022/01/26 11:46:11;;;;;;;12.00;5.30;;;;;;;4.31;100.00;101409.22;3505733;83;98833;-87
2022/01/26 11:51:12;;;;;;;15.43;7.37;;;;;;;4.34;100.00;101403.70;3498495;83;98885;-89
2022/01/26 11:56:19;;;;;;;15.93;7.67;;;;;;;4.36;100.00;101406.37;3495283;83;98984;-90
2022/01/26 12:01:22;;;;;;;20.57;8.90;;;;;;;4.40;100.00;101414.72;3494559;83;98718;-91
2022/01/26 12:06:40;;;;;;;16.65;7.15;;;;;;;4.39;100.00;101411.75;3495482;83;98822;-88
2022/01/26 12:11:39;;;;;;;17.70;7.15;;;;;;;4.37;100.00;101405.83;3496406;83;98765;-88
2022/01/26 12:16:45;;;;;;;21.23;8.40;;;;;;;4.35;100.00;101412.94;3508958;83;98893;-87
2022/01/26 12:32:51;;;;;;;21.85;9.73;;;;;;;4.35;100.00;101395.77;3493672;81;98900;-87
2022/01/26 12:38:11;;;;;;;14.50;5.87;;;;;;;4.32;100.00;101389.59;3422706;84;31395;-88
2022/01/26 12:47:51;;;;;;;17.23;7.37;;;;;;;4.33;100.00;101390.66;3518885;81;98676;-89
2022/01/26 12:53:10;;;;;;;14.47;6.75;;;;;;;4.30;100.00;101380.91;3520072;82;98880;-92
2022/01/26 12:58:11;;;;;;;13.95;6.58;;;;;;;4.28;100.00;101366.27;3518097;82;98860;-87
2022/01/26 13:03:15;;;;;;;15.87;6.87;;;;;;;4.25;100.00;101363.36;3513031;82;98797;-92
2022/01/26 13:08:16;;;;;;;16.60;7.67;;;;;;;4.19;100.00;101366.77;3520293;82;98911;-92
2022/01/26 13:13:22;;;;;;;23.17;8.87;;;;;;;4.12;100.00;101359.59;3439275;83;98462;-88
2022/01/26 13:18:48;;;;;;;;;;;;;;;4.06;100.00;101347.77;3468505;84;99178;-88
2022/01/26 13:24:54;;;;;;;15.03;6.78;;;;;;;4.01;100.00;101346.53;3467099;83;84225;-89
2022/01/26 13:29:08;;;;;;;19.67;9.03;;;;;;;3.91;100.00;101350.32;3449071;84;98884;-88
2022/01/26 13:44:39;;;;;;;15.45;7.15;;;;;;;3.81;100.00;101346.48;3476795;83;32415;-90
2022/01/26 13:59:51;;;;;;;19.43;8.57;;;;;;;3.71;100.00;101336.41;3454416;83;99192;-90
2022/01/26 14:04:49;;;;;;;16.15;7.35;;;;;;;3.69;100.00;101311.39;3450770;83;99336;-88
2022/01/26 14:09:50;;;;;;;15.60;6.83;;;;;;;3.63;100.00;101312.09;3452902;83;98874;-87
2022/01/26 14:14:54;;;;;;;21.47;8.03;;;;;;;3.63;100.00;101297.66;3464366;83;98954;-87
2022/01/26 14:40:52;;;;;;;19.30;6.78;;;;;;;3.61;100.00;101289.02;3473075;83;99685;-87
2022/01/26 14:51:18;;;;;;;17.27;7.70;;;;;;;3.55;100.00;101286.17;3528757;82;98937;-89
2022/01/26 15:19:00;;;;;;;16.23;6.78;;;;;;;3.42;100.00;101267.42;3428972;84;98935;-88
2022/01/26 15:33:22;;;;;;;14.03;4.97;;;;;;;3.32;100.00;101258.14;3495909;83;99337;-88
2022/01/26 15:49:04;;;;;;;;;;;;;;;3.21;100.00;101256.77;3502647;83;98749;-88
2022/01/26 15:59:35;;;;;;;22.45;9.40;;;;;;;3.16;100.00;101260.19;3492357;83;98892;-86
2022/01/26 16:04:45;;;;;;;16.37;7.22;;;;;;;3.12;100.00;101274.93;3509034;83;98781;-90
2022/01/26 17:43:13;;;;;;;10.48;4.05;;;;;;;2.64;100.00;101207.27;3507073;83;98854;-88
2022/01/26 18:16:40;;;;;;;12.63;5.28;;;;;;;2.45;100.00;101181.31;3503715;83;98813;-87
2022/01/26 18:31:45;;;;;;;11.70;5.13;;;;;;;2.43;100.00;101191.16;3479367;83;100730;-87
2022/01/26 18:53:07;;;;;;;12.73;4.93;;;;;;;2.38;100.00;101174.14;3483248;83;98821;-91
2022/01/26 18:58:08;;;;;;;15.40;5.62;;;;;;;2.36;100.00;101185.87;3483547;82;98881;-96
2022/01/26 19:03:09;;;;;;;13.87;5.50;;;;;;;2.33;100.00;101203.59;3536163;82;98861;-86
2022/01/26 19:08:10;;;;;;;14.03;5.77;;;;;;;2.31;100.00;101211.24;3542761;82;25922;-93
2022/01/26 19:13:11;;;;;;;14.90;6.23;;;;;;;2.30;100.00;101204.17;3488871;83;98675;-87
2022/01/26 19:18:21;;;;;;;15.43;6.23;;;;;;;2.23;100.00;101207.86;3499747;83;25815;-89
2022/01/26 19:28:31;;;;;;;19.40;6.90;;;;;;;2.19;100.00;101195.98;3507683;83;98959;-91
2022/01/26 19:39:59;;;;;;;18.70;6.97;;;;;;;2.19;100.00;101172.91;3484371;83;98900;-88
2022/01/26 19:54:22;;;;;;;18.57;7.95;;;;;;;2.12;100.00;101161.66;3497112;83;98873;-87
2022/01/26 19:59:23;;;;;;;24.63;9.30;;;;;;;2.10;100.00;101148.95;3486485;83;98877;-87
2022/01/26 20:04:24;;;;;;;22.20;9.13;;;;;;;2.09;100.00;101156.82;3506683;83;98879;-90
2022/01/26 20:09:30;;;;;;;23.17;8.53;;;;;;;2.08;100.00;101146.28;3501920;83;98904;-95
2022/01/26 20:14:36;;;;;;;21.62;8.45;;;;;;;2.08;100.00;101172.08;3508868;83;32267;-86
2022/01/26 20:19:38;;;;;;;21.95;9.13;;;;;;;2.07;100.00;101160.40;3503696;83;98760;-89
2022/01/26 20:24:39;;;;;;;27.62;11.18;;;;;;;2.07;100.00;101164.47;3469377;82;98737;-87
2022/01/26 20:29:45;;;;;;;34.83;12.63;;;;;;;2.07;100.00;101157.69;3496378;83;99086;-87
2022/01/26 20:34:43;;;;;;;34.35;11.85;;;;;;;2.06;100.00;101147.12;3501020;82;99216;-87
2022/01/26 20:39:44;;;;;;;28.10;10.90;;;;;;;2.06;100.00;101143.87;3502480;82;99176;-88
2022/01/26 20:44:45;;;;;;;26.50;10.93;;;;;;;2.04;100.00;101140.66;3515488;82;25936;-87
2022/01/26 20:49:46;;;;;;;27.95;11.25;;;;;;;2.03;100.00;101130.10;3512734;82;98933;-87
2022/01/26 20:54:47;;;;;;;35.00;11.90;;;;;;;2.02;100.00;101145.58;3515168;82;98862;-88
2022/01/26 20:59:48;;;;;;;31.67;11.30;;;;;;;2.01;100.00;101158.91;3511487;82;99682;-87
2022/01/26 21:04:49;;;;;;;33.77;12.47;;;;;;;2.02;100.00;101163.78;3516965;82;99144;-90
2022/01/26 21:09:50;;;;;;;33.27;12.97;;;;;;;2.03;100.00;101177.61;3479032;83;99065;-95
2022/01/26 21:14:51;;;;;;;28.03;10.03;;;;;;;2.01;100.00;101135.83;3502127;83;25682;-86
2022/01/26 21:19:52;;;;;;;31.50;10.77;;;;;;;2.03;100.00;101143.67;3494531;82;98954;-87
2022/01/26 21:24:53;;;;;;;28.17;10.30;;;;;;;2.01;100.00;101137.72;3494327;83;99001;-87
2022/01/26 21:29:54;;;;;;;28.23;10.80;;;;;;;2.01;100.00;101132.30;3486253;83;99037;-90
2022/01/26 21:34:55;;;;;;;32.97;12.60;;;;;;;2.01;100.00;101149.40;3445404;83;99012;-86
2022/01/26 21:39:56;;;;;;;32.07;11.77;;;;;;;2.00;100.00;101130.69;3513038;82;99073;-87
2022/01/26 21:44:57;;;;;;;26.67;11.53;;;;;;;2.01;100.00;101149.94;3442484;84;33169;-86
2022/01/26 21:49:58;;;;;;;48.77;17.67;;;;;;;2.00;100.00;101153.77;3499059;81;99377;-89
2022/01/26 21:54:59;;;;;;;36.03;13.37;;;;;;;2.00;100.00;101151.87;3441709;84;99242;-87
2022/01/26 22:00:01;;;;;;;39.23;14.90;;;;;;;1.99;100.00;101146.20;3503443;81;99386;-90
2022/01/26 22:05:02;;;;;;;40.63;14.77;;;;;;;2.01;100.00;101133.66;3466335;82;98993;-88
2022/01/26 22:10:04;;;;;;;42.60;15.10;;;;;;;2.01;100.00;101122.25;3452798;83;99432;-87
2022/01/26 22:15:06;;;;;;;46.83;17.80;;;;;;;2.01;100.00;101118.72;3481762;83;33106;-87
2022/01/26 22:20:10;;;;;;;41.87;16.63;;;;;;;2.01;100.00;101126.33;3476934;83;98872;-86
2022/01/26 22:25:14;;;;;;;49.07;18.07;;;;;;;2.00;100.00;101117.12;3470198;83;98833;-87
2022/01/26 22:30:17;;;;;;;44.47;17.53;;;;;;;2.00;100.00;101097.58;3469086;83;98978;-92
2022/01/26 22:35:17;;;;;;;47.87;17.30;;;;;;;2.00;100.00;101109.79;3450857;84;99019;-86
2022/01/26 22:40:22;;;;;;;59.90;20.33;;;;;;;1.99;100.00;101095.16;3473781;83;99004;-86
2022/01/26 22:45:21;;;;;;;57.93;20.73;;;;;;;1.99;100.00;101093.80;3468613;83;99039;-86
2022/01/26 22:50:22;;;;;;;64.67;22.30;;;;;;;1.99;100.00;101085.66;3528990;82;98788;-86
2022/01/26 22:55:25;;;;;;;54.75;21.37;;;;;;;1.98;100.00;101084.05;3541833;82;98819;-91
2022/01/26 23:06:22;;;;;;;65.60;21.70;;;;;;;1.99;100.00;101082.94;3478002;83;99127;-87
2022/01/26 23:11:30;;;;;;;60.95;22.20;;;;;;;2.02;100.00;101057.92;3466127;83;99039;-87
2022/01/26 23:16:31;;;;;;;69.30;22.90;;;;;;;2.02;100.00;101058.70;3474697;83;99100;-86
2022/01/26 23:21:32;;;;;;;74.13;23.07;;;;;;;2.03;100.00;101053.52;3464614;83;99141;-87
2022/01/26 23:26:39;;;;;;;70.17;22.23;;;;;;;2.06;100.00;101034.45;3504508;83;33703;-86
2022/01/26 23:58:38;;;;;;;79.50;26.05;;;;;;;2.10;100.00;101007.77;3504557;83;99050;-89
